sensor_id;sensor_type;location;lat;lon;timestamp;pressure;altitude;pressure_sealevel;temperature
70389;BMP280;58659;49.050;8.530;2023-03-14T00:01:15;98147.38;;;11.23
70389;BMP280;58659;49.050;8.530;2023-03-14T00:03:41;98132.78;;;11.26
70389;BMP280;58659;49.050;8.530;2023-03-14T00:06:07;98140.59;;;11.29
70389;BMP280;58659;49.050;8.530;2023-03-14T00:08:33;98138.72;;;11.30
70389;BMP280;58659;49.050;8.530;2023-03-14T00:11:10;98157.94;;;11.43
70389;BMP280;58659;49.050;8.530;2023-03-14T00:13:36;98139.31;;;11.41
70389;BMP280;58659;49.050;8.530;2023-03-14T00:16:06;98153.44;;;11.47
70389;BMP280;58659;49.050;8.530;2023-03-14T00:18:32;98132.22;;;11.41
70389;BMP280;58659;49.050;8.530;2023-03-14T00:20:59;98132.06;;;11.52
70389;BMP280;58659;49.050;8.530;2023-03-14T00:23:25;98123.00;;;11.57
70389;BMP280;58659;49.050;8.530;2023-03-14T00:25:50;98121.31;;;11.43
70389;BMP280;58659;49.050;8.530;2023-03-14T00:28:15;98115.47;;;11.35
70389;BMP280;58659;49.050;8.530;2023-03-14T00:30:40;98120.38;;;11.33
70389;BMP280;58659;49.050;8.530;2023-03-14T00:33:06;98120.38;;;11.33
70389;BMP280;58659;49.050;8.530;2023-03-14T00:35:31;98104.38;;;11.28
70389;BMP280;58659;49.050;8.530;2023-03-14T00:37:56;98123.03;;;11.30
70389;BMP280;58659;49.050;8.530;2023-03-14T00:40:22;98121.59;;;11.25
70389;BMP280;58659;49.050;8.530;2023-03-14T00:42:47;98117.75;;;11.33
70389;BMP280;58659;49.050;8.530;2023-03-14T00:45:12;98117.66;;;11.40
70389;BMP280;58659;49.050;8.530;2023-03-14T00:47:38;98116.09;;;11.46
70389;BMP280;58659;49.050;8.530;2023-03-14T00:50:03;98128.97;;;11.34
70389;BMP280;58659;49.050;8.530;2023-03-14T00:52:28;98134.84;;;11.38
70389;BMP280;58659;49.050;8.530;2023-03-14T00:54:54;98138.13;;;11.45
70389;BMP280;58659;49.050;8.530;2023-03-14T00:57:19;98151.09;;;11.52
70389;BMP280;58659;49.050;8.530;2023-03-14T00:59:44;98148.81;;;11.55
70389;BMP280;58659;49.050;8.530;2023-03-14T01:02:10;98160.59;;;11.70
70389;BMP280;58659;49.050;8.530;2023-03-14T01:04:35;98161.50;;;11.83
70389;BMP280;58659;49.050;8.530;2023-03-14T01:07:02;98168.66;;;11.79
70389;BMP280;58659;49.050;8.530;2023-03-14T01:09:28;98166.47;;;11.74
70389;BMP280;58659;49.050;8.530;2023-03-14T01:11:53;98166.59;;;11.67
70389;BMP280;58659;49.050;8.530;2023-03-14T01:14:18;98140.56;;;11.60
70389;BMP280;58659;49.050;8.530;2023-03-14T01:16:44;98143.91;;;11.60
70389;BMP280;58659;49.050;8.530;2023-03-14T01:19:09;98153.59;;;11.63
70389;BMP280;58659;49.050;8.530;2023-03-14T01:21:35;98152.75;;;11.66
70389;BMP280;58659;49.050;8.530;2023-03-14T01:24:02;98152.75;;;11.66
70389;BMP280;58659;49.050;8.530;2023-03-14T01:26:30;98150.16;;;11.66
70389;BMP280;58659;49.050;8.530;2023-03-14T01:28:56;98135.31;;;11.60
70389;BMP280;58659;49.050;8.530;2023-03-14T01:31:23;98134.53;;;11.63
70389;BMP280;58659;49.050;8.530;2023-03-14T01:33:50;98137.56;;;11.58
70389;BMP280;58659;49.050;8.530;2023-03-14T01:36:18;98125.00;;;11.49
70389;BMP280;58659;49.050;8.530;2023-03-14T01:38:43;98125.72;;;11.49
70389;BMP280;58659;49.050;8.530;2023-03-14T01:41:17;98105.34;;;11.41
70389;BMP280;58659;49.050;8.530;2023-03-14T01:43:42;98113.09;;;11.44
70389;BMP280;58659;49.050;8.530;2023-03-14T01:54:00;98061.34;;;11.36
70389;BMP280;58659;49.050;8.530;2023-03-14T01:56:26;98049.06;;;11.33
70389;BMP280;58659;49.050;8.530;2023-03-14T01:58:52;98043.94;;;11.26
70389;BMP280;58659;49.050;8.530;2023-03-14T02:01:20;98042.56;;;11.18
70389;BMP280;58659;49.050;8.530;2023-03-14T02:03:58;98032.94;;;11.11
70389;BMP280;58659;49.050;8.530;2023-03-14T02:06:31;98029.97;;;11.09
70389;BMP280;58659;49.050;8.530;2023-03-14T02:09:00;98041.22;;;11.06
70389;BMP280;58659;49.050;8.530;2023-03-14T02:11:28;98031.97;;;10.98
70389;BMP280;58659;49.050;8.530;2023-03-14T02:13:55;98033.91;;;10.94
70389;BMP280;58659;49.050;8.530;2023-03-14T02:16:21;98041.75;;;10.94
70389;BMP280;58659;49.050;8.530;2023-03-14T02:18:47;98046.69;;;10.85
70389;BMP280;58659;49.050;8.530;2023-03-14T02:21:23;98044.75;;;10.89
70389;BMP280;58659;49.050;8.530;2023-03-14T02:24:03;98032.06;;;10.91
70389;BMP280;58659;49.050;8.530;2023-03-14T02:26:38;98022.72;;;10.93
70389;BMP280;58659;49.050;8.530;2023-03-14T02:29:05;98004.16;;;10.88
70389;BMP280;58659;49.050;8.530;2023-03-14T02:31:30;98015.72;;;10.87
70389;BMP280;58659;49.050;8.530;2023-03-14T02:33:56;98019.09;;;10.87
70389;BMP280;58659;49.050;8.530;2023-03-14T02:36:23;98022.75;;;10.90
70389;BMP280;58659;49.050;8.530;2023-03-14T02:41:16;98009.81;;;10.83
70389;BMP280;58659;49.050;8.530;2023-03-14T02:43:42;98015.28;;;10.92
70389;BMP280;58659;49.050;8.530;2023-03-14T02:46:10;98009.31;;;10.91
70389;BMP280;58659;49.050;8.530;2023-03-14T02:48:43;98002.31;;;10.85
70389;BMP280;58659;49.050;8.530;2023-03-14T02:51:11;98012.75;;;10.85
70389;BMP280;58659;49.050;8.530;2023-03-14T02:53:37;98000.47;;;10.82
70389;BMP280;58659;49.050;8.530;2023-03-14T02:56:03;98000.22;;;10.73
70389;BMP280;58659;49.050;8.530;2023-03-14T02:58:29;98002.06;;;10.76
70389;BMP280;58659;49.050;8.530;2023-03-14T03:00:54;98004.25;;;10.77
70389;BMP280;58659;49.050;8.530;2023-03-14T03:05:53;97992.38;;;10.73
70389;BMP280;58659;49.050;8.530;2023-03-14T03:08:20;97981.94;;;10.73
70389;BMP280;58659;49.050;8.530;2023-03-14T03:10:46;97983.09;;;10.72
70389;BMP280;58659;49.050;8.530;2023-03-14T03:13:11;97982.38;;;10.68
70389;BMP280;58659;49.050;8.530;2023-03-14T03:15:37;97970.81;;;10.65
70389;BMP280;58659;49.050;8.530;2023-03-14T03:18:02;97979.09;;;10.64
70389;BMP280;58659;49.050;8.530;2023-03-14T03:20:28;97974.94;;;10.66
70389;BMP280;58659;49.050;8.530;2023-03-14T03:22:53;97968.66;;;10.64
70389;BMP280;58659;49.050;8.530;2023-03-14T03:25:19;97976.13;;;10.62
70389;BMP280;58659;49.050;8.530;2023-03-14T03:27:44;97957.47;;;10.60
70389;BMP280;58659;49.050;8.530;2023-03-14T03:30:10;97964.28;;;10.54
70389;BMP280;58659;49.050;8.530;2023-03-14T03:32:35;97960.94;;;10.53
70389;BMP280;58659;49.050;8.530;2023-03-14T03:35:02;97957.97;;;10.51
70389;BMP280;58659;49.050;8.530;2023-03-14T03:37:30;97960.50;;;10.58
70389;BMP280;58659;49.050;8.530;2023-03-14T03:39:56;97960.47;;;10.62
70389;BMP280;58659;49.050;8.530;2023-03-14T03:42:21;97965.94;;;10.71
70389;BMP280;58659;49.050;8.530;2023-03-14T03:44:46;97967.41;;;10.72
70389;BMP280;58659;49.050;8.530;2023-03-14T03:47:12;97964.75;;;10.75
70389;BMP280;58659;49.050;8.530;2023-03-14T03:49:37;97951.50;;;10.63
70389;BMP280;58659;49.050;8.530;2023-03-14T03:52:03;97951.84;;;10.65
70389;BMP280;58659;49.050;8.530;2023-03-14T03:54:28;97953.41;;;10.59
70389;BMP280;58659;49.050;8.530;2023-03-14T03:56:56;97958.34;;;10.49
70389;BMP280;58659;49.050;8.530;2023-03-14T03:59:21;97962.06;;;10.52
70389;BMP280;58659;49.050;8.530;2023-03-14T04:01:47;97943.34;;;10.57
70389;BMP280;58659;49.050;8.530;2023-03-14T04:04:13;97971.72;;;10.55
70389;BMP280;58659;49.050;8.530;2023-03-14T04:06:38;97946.66;;;10.61
70389;BMP280;58659;49.050;8.530;2023-03-14T04:09:03;97961.50;;;10.68
70389;BMP280;58659;49.050;8.530;2023-03-14T04:11:29;97972.22;;;10.73
70389;BMP280;58659;49.050;8.530;2023-03-14T04:13:54;97966.19;;;10.80
70389;BMP280;58659;49.050;8.530;2023-03-14T04:16:22;97950.91;;;10.78
70389;BMP280;58659;49.050;8.530;2023-03-14T04:18:48;97949.84;;;10.76
70389;BMP280;58659;49.050;8.530;2023-03-14T04:21:13;97960.38;;;10.69
70389;BMP280;58659;49.050;8.530;2023-03-14T04:23:39;97947.81;;;10.57
70389;BMP280;58659;49.050;8.530;2023-03-14T04:26:04;97949.50;;;10.43
70389;BMP280;58659;49.050;8.530;2023-03-14T04:28:30;97948.13;;;10.32
70389;BMP280;58659;49.050;8.530;2023-03-14T04:30:55;97942.97;;;10.28
70389;BMP280;58659;49.050;8.530;2023-03-14T04:33:20;97933.28;;;10.29
70389;BMP280;58659;49.050;8.530;2023-03-14T04:35:46;97942.59;;;10.26
70389;BMP280;58659;49.050;8.530;2023-03-14T04:38:12;97939.31;;;10.22
70389;BMP280;58659;49.050;8.530;2023-03-14T04:40:41;97940.00;;;10.26
70389;BMP280;58659;49.050;8.530;2023-03-14T04:43:11;97925.84;;;10.24
70389;BMP280;58659;49.050;8.530;2023-03-14T04:45:37;97934.41;;;10.28
70389;BMP280;58659;49.050;8.530;2023-03-14T04:48:02;97928.88;;;10.22
70389;BMP280;58659;49.050;8.530;2023-03-14T04:50:28;97930.38;;;10.20
70389;BMP280;58659;49.050;8.530;2023-03-14T04:52:53;97920.69;;;10.20
70389;BMP280;58659;49.050;8.530;2023-03-14T04:55:18;97912.09;;;10.23
70389;BMP280;58659;49.050;8.530;2023-03-14T04:57:43;97910.19;;;10.27
70389;BMP280;58659;49.050;8.530;2023-03-14T05:00:09;97923.38;;;10.43
70389;BMP280;58659;49.050;8.530;2023-03-14T05:02:35;97923.22;;;10.58
70389;BMP280;58659;49.050;8.530;2023-03-14T05:05:01;97911.50;;;10.69
70389;BMP280;58659;49.050;8.530;2023-03-14T05:07:26;97918.50;;;10.76
70389;BMP280;58659;49.050;8.530;2023-03-14T05:09:51;97922.13;;;10.82
70389;BMP280;58659;49.050;8.530;2023-03-14T05:12:18;97900.53;;;10.78
70389;BMP280;58659;49.050;8.530;2023-03-14T05:14:44;97890.84;;;10.78
70389;BMP280;58659;49.050;8.530;2023-03-14T05:17:09;97914.41;;;10.75
70389;BMP280;58659;49.050;8.530;2023-03-14T05:19:35;97907.94;;;10.83
70389;BMP280;58659;49.050;8.530;2023-03-14T05:22:01;97904.91;;;10.88
70389;BMP280;58659;49.050;8.530;2023-03-14T05:24:26;97902.28;;;10.88
70389;BMP280;58659;49.050;8.530;2023-03-14T05:26:51;97894.84;;;10.86
70389;BMP280;58659;49.050;8.530;2023-03-14T05:29:17;97898.56;;;10.85
70389;BMP280;58659;49.050;8.530;2023-03-14T05:31:42;97897.09;;;10.84
70389;BMP280;58659;49.050;8.530;2023-03-14T05:34:07;97897.50;;;10.83
70389;BMP280;58659;49.050;8.530;2023-03-14T05:36:32;97892.28;;;10.83
70389;BMP280;58659;49.050;8.530;2023-03-14T05:38:58;97890.38;;;10.83
70389;BMP280;58659;49.050;8.530;2023-03-14T05:41:23;97872.47;;;10.85
70389;BMP280;58659;49.050;8.530;2023-03-14T05:43:59;97875.81;;;10.86
70389;BMP280;58659;49.050;8.530;2023-03-14T05:46:25;97871.34;;;10.86
70389;BMP280;58659;49.050;8.530;2023-03-14T05:48:50;97874.34;;;10.85
70389;BMP280;58659;49.050;8.530;2023-03-14T05:51:16;97861.78;;;10.76
70389;BMP280;58659;49.050;8.530;2023-03-14T05:53:41;97869.72;;;10.69
70389;BMP280;58659;49.050;8.530;2023-03-14T05:56:07;97860.88;;;10.60
70389;BMP280;58659;49.050;8.530;2023-03-14T05:58:33;97859.81;;;10.57
70389;BMP280;58659;49.050;8.530;2023-03-14T06:01:03;97864.38;;;10.49
70389;BMP280;58659;49.050;8.530;2023-03-14T06:03:29;97861.53;;;10.40
70389;BMP280;58659;49.050;8.530;2023-03-14T06:05:54;97863.69;;;10.19
70389;BMP280;58659;49.050;8.530;2023-03-14T06:08:20;97846.94;;;10.16
70389;BMP280;58659;49.050;8.530;2023-03-14T06:10:45;97857.44;;;10.13
70389;BMP280;58659;49.050;8.530;2023-03-14T06:13:10;97860.78;;;10.13
70389;BMP280;58659;49.050;8.530;2023-03-14T06:16:04;97855.91;;;10.15
70389;BMP280;58659;49.050;8.530;2023-03-14T06:18:37;97861.38;;;10.24
70389;BMP280;58659;49.050;8.530;2023-03-14T06:24:51;97849.66;;;10.39
70389;BMP280;58659;49.050;8.530;2023-03-14T06:27:28;97853.44;;;10.31
70389;BMP280;58659;49.050;8.530;2023-03-14T06:29:55;97850.84;;;10.31
70389;BMP280;58659;49.050;8.530;2023-03-14T06:32:32;97860.50;;;10.34
70389;BMP280;58659;49.050;8.530;2023-03-14T06:34:59;97857.75;;;10.45
70389;BMP280;58659;49.050;8.530;2023-03-14T06:37:27;97860.56;;;10.58
70389;BMP280;58659;49.050;8.530;2023-03-14T06:39:53;97861.63;;;10.64
70389;BMP280;58659;49.050;8.530;2023-03-14T06:42:18;97858.16;;;10.70
70389;BMP280;58659;49.050;8.530;2023-03-14T06:44:44;97861.81;;;10.73
70389;BMP280;58659;49.050;8.530;2023-03-14T06:47:09;97869.22;;;10.78
70389;BMP280;58659;49.050;8.530;2023-03-14T06:49:34;97881.88;;;10.79
70389;BMP280;58659;49.050;8.530;2023-03-14T06:52:00;97874.00;;;10.83
70389;BMP280;58659;49.050;8.530;2023-03-14T06:54:25;97883.75;;;10.79
70389;BMP280;58659;49.050;8.530;2023-03-14T06:56:50;97887.09;;;10.79
70389;BMP280;58659;49.050;8.530;2023-03-14T06:59:15;97882.91;;;10.85
70389;BMP280;58659;49.050;8.530;2023-03-14T07:01:41;97883.66;;;10.86
70389;BMP280;58659;49.050;8.530;2023-03-14T07:04:06;97882.53;;;10.87
70389;BMP280;58659;49.050;8.530;2023-03-14T07:06:33;97897.72;;;10.92
70389;BMP280;58659;49.050;8.530;2023-03-14T07:08:58;97890.63;;;10.92
70389;BMP280;58659;49.050;8.530;2023-03-14T07:11:25;97893.28;;;10.89
70389;BMP280;58659;49.050;8.530;2023-03-14T07:13:51;97898.09;;;10.94
70389;BMP280;58659;49.050;8.530;2023-03-14T07:16:16;97895.75;;;10.99
70389;BMP280;58659;49.050;8.530;2023-03-14T07:18:41;97901.66;;;11.04
70389;BMP280;58659;49.050;8.530;2023-03-14T07:21:08;97904.28;;;11.04
70389;BMP280;58659;49.050;8.530;2023-03-14T07:23:37;97908.31;;;11.08
70389;BMP280;58659;49.050;8.530;2023-03-14T07:26:03;97907.84;;;11.13
70389;BMP280;58659;49.050;8.530;2023-03-14T07:28:28;97913.78;;;11.17
70389;BMP280;58659;49.050;8.530;2023-03-14T07:30:54;97916.31;;;11.21
70389;BMP280;58659;49.050;8.530;2023-03-14T07:33:20;97911.81;;;11.21
70389;BMP280;58659;49.050;8.530;2023-03-14T07:35:49;97910.22;;;11.27
70389;BMP280;58659;49.050;8.530;2023-03-14T07:38:14;97922.53;;;11.30
70389;BMP280;58659;49.050;8.530;2023-03-14T07:40:40;97914.69;;;11.30
70389;BMP280;58659;49.050;8.530;2023-03-14T07:43:05;97915.34;;;11.34
70389;BMP280;58659;49.050;8.530;2023-03-14T07:45:31;97915.75;;;11.33
70389;BMP280;58659;49.050;8.530;2023-03-14T07:47:56;97923.41;;;11.43
70389;BMP280;58659;49.050;8.530;2023-03-14T07:50:23;97905.38;;;11.49
70389;BMP280;58659;49.050;8.530;2023-03-14T07:52:49;97915.78;;;11.52
70389;BMP280;58659;49.050;8.530;2023-03-14T07:55:14;97914.88;;;11.63
70389;BMP280;58659;49.050;8.530;2023-03-14T07:57:40;97918.50;;;11.88
70389;BMP280;58659;49.050;8.530;2023-03-14T08:00:07;97913.94;;;12.12
70389;BMP280;58659;49.050;8.530;2023-03-14T08:02:32;97914.97;;;12.34
70389;BMP280;58659;49.050;8.530;2023-03-14T08:04:58;97920.66;;;12.49
70389;BMP280;58659;49.050;8.530;2023-03-14T08:07:23;97926.28;;;12.64
70389;BMP280;58659;49.050;8.530;2023-03-14T08:09:48;97939.97;;;12.55
70389;BMP280;58659;49.050;8.530;2023-03-14T08:12:14;97933.44;;;12.27
70389;BMP280;58659;49.050;8.530;2023-03-14T08:14:39;97934.00;;;12.19
70389;BMP280;58659;49.050;8.530;2023-03-14T08:17:04;97925.31;;;12.02
70389;BMP280;58659;49.050;8.530;2023-03-14T08:19:30;97942.25;;;11.97
70389;BMP280;58659;49.050;8.530;2023-03-14T08:21:55;97935.13;;;11.98
70389;BMP280;58659;49.050;8.530;2023-03-14T08:24:21;97939.81;;;11.87
70389;BMP280;58659;49.050;8.530;2023-03-14T08:26:46;97934.53;;;11.71
70389;BMP280;58659;49.050;8.530;2023-03-14T08:29:11;97937.47;;;11.49
70389;BMP280;58659;49.050;8.530;2023-03-14T08:31:38;97932.84;;;11.37
70389;BMP280;58659;49.050;8.530;2023-03-14T08:34:14;97926.72;;;11.24
70389;BMP280;58659;49.050;8.530;2023-03-14T08:36:40;97931.34;;;11.13
70389;BMP280;58659;49.050;8.530;2023-03-14T08:39:05;97929.91;;;11.12
70389;BMP280;58659;49.050;8.530;2023-03-14T08:41:32;97923.88;;;11.15
70389;BMP280;58659;49.050;8.530;2023-03-14T08:43:58;97914.09;;;11.19
70389;BMP280;58659;49.050;8.530;2023-03-14T08:46:23;97907.50;;;11.34
70389;BMP280;58659;49.050;8.530;2023-03-14T08:48:48;97929.19;;;11.55
70389;BMP280;58659;49.050;8.530;2023-03-14T08:51:14;97940.22;;;11.66
70389;BMP280;58659;49.050;8.530;2023-03-14T08:53:40;97925.97;;;11.67
70389;BMP280;58659;49.050;8.530;2023-03-14T08:56:06;97945.88;;;11.84
70389;BMP280;58659;49.050;8.530;2023-03-14T08:58:33;97944.91;;;11.94
70389;BMP280;58659;49.050;8.530;2023-03-14T09:00:58;97939.41;;;12.08
70389;BMP280;58659;49.050;8.530;2023-03-14T09:03:25;97948.22;;;12.18
70389;BMP280;58659;49.050;8.530;2023-03-14T09:05:51;97947.41;;;12.21
70389;BMP280;58659;49.050;8.530;2023-03-14T09:08:17;97944.72;;;12.04
70389;BMP280;58659;49.050;8.530;2023-03-14T09:10:42;97958.81;;;11.91
70389;BMP280;58659;49.050;8.530;2023-03-14T09:13:07;97961.50;;;11.87
70389;BMP280;58659;49.050;8.530;2023-03-14T09:15:33;97963.84;;;11.82
70389;BMP280;58659;49.050;8.530;2023-03-14T09:17:58;97939.81;;;11.87
70389;BMP280;58659;49.050;8.530;2023-03-14T09:20:24;97948.81;;;11.86
70389;BMP280;58659;49.050;8.530;2023-03-14T09:22:49;97958.47;;;12.09
70389;BMP280;58659;49.050;8.530;2023-03-14T09:25:15;97955.84;;;12.09
70389;BMP280;58659;49.050;8.530;2023-03-14T09:27:40;97959.75;;;12.20
70389;BMP280;58659;49.050;8.530;2023-03-14T09:30:06;97974.78;;;12.16
70389;BMP280;58659;49.050;8.530;2023-03-14T09:32:31;97967.84;;;12.26
70389;BMP280;58659;49.050;8.530;2023-03-14T09:34:57;97954.69;;;12.29
70389;BMP280;58659;49.050;8.530;2023-03-14T09:37:22;97972.03;;;12.23
70389;BMP280;58659;49.050;8.530;2023-03-14T09:39:48;97976.63;;;12.19
70389;BMP280;58659;49.050;8.530;2023-03-14T09:42:16;97988.13;;;12.22
70389;BMP280;58659;49.050;8.530;2023-03-14T09:44:51;97986.50;;;12.08
70389;BMP280;58659;49.050;8.530;2023-03-14T09:47:18;97982.75;;;12.09
70389;BMP280;58659;49.050;8.530;2023-03-14T09:49:45;97985.06;;;12.07
70389;BMP280;58659;49.050;8.530;2023-03-14T09:54:57;97993.19;;;11.93
70389;BMP280;58659;49.050;8.530;2023-03-14T09:57:24;97993.56;;;11.91
70389;BMP280;58659;49.050;8.530;2023-03-14T09:59:52;97996.91;;;11.92
70389;BMP280;58659;49.050;8.530;2023-03-14T10:02:22;97999.75;;;12.01
70389;BMP280;58659;49.050;8.530;2023-03-14T10:04:50;97992.69;;;11.98
70389;BMP280;58659;49.050;8.530;2023-03-14T10:07:18;97994.44;;;12.04
70389;BMP280;58659;49.050;8.530;2023-03-14T10:09:50;97990.97;;;12.11
70389;BMP280;58659;49.050;8.530;2023-03-14T10:12:18;97997.41;;;12.07
70389;BMP280;58659;49.050;8.530;2023-03-14T10:14:51;97999.41;;;11.99
70389;BMP280;58659;49.050;8.530;2023-03-14T10:17:19;97980.59;;;11.84
70389;BMP280;58659;49.050;8.530;2023-03-14T10:20:03;97986.44;;;11.49
70389;BMP280;58659;49.050;8.530;2023-03-14T10:22:51;97986.09;;;11.24
70389;BMP280;58659;49.050;8.530;2023-03-14T10:25:35;97953.81;;;11.11
70389;BMP280;58659;49.050;8.530;2023-03-14T10:28:02;97953.03;;;10.87
70389;BMP280;58659;49.050;8.530;2023-03-14T10:32:53;97926.66;;;10.78
70389;BMP280;58659;49.050;8.530;2023-03-14T10:35:22;97927.53;;;10.68
70389;BMP280;58659;49.050;8.530;2023-03-14T10:37:59;97920.56;;;10.61
70389;BMP280;58659;49.050;8.530;2023-03-14T10:40:34;97920.03;;;10.46
70389;BMP280;58659;49.050;8.530;2023-03-14T10:43:05;97900.28;;;10.42
70389;BMP280;58659;49.050;8.530;2023-03-14T10:48:06;97857.84;;;10.38
70389;BMP280;58659;49.050;8.530;2023-03-14T10:50:32;97850.31;;;10.43
70389;BMP280;58659;49.050;8.530;2023-03-14T10:53:02;97858.28;;;10.33
70389;BMP280;58659;49.050;8.530;2023-03-14T10:55:41;97859.13;;;10.26
70389;BMP280;58659;49.050;8.530;2023-03-14T10:58:18;97826.03;;;10.20
70389;BMP280;58659;49.050;8.530;2023-03-14T11:01:14;97814.56;;;10.14
70389;BMP280;58659;49.050;8.530;2023-03-14T11:04:13;97788.34;;;9.94
70389;BMP280;58659;49.050;8.530;2023-03-14T11:06:50;97760.09;;;9.89
70389;BMP280;58659;49.050;8.530;2023-03-14T11:09:29;97748.19;;;9.88
70389;BMP280;58659;49.050;8.530;2023-03-14T11:12:12;97758.28;;;9.86
70389;BMP280;58659;49.050;8.530;2023-03-14T11:14:43;97757.94;;;9.84
70389;BMP280;58659;49.050;8.530;2023-03-14T11:20:31;97738.50;;;9.88
70389;BMP280;58659;49.050;8.530;2023-03-14T11:23:18;97711.78;;;9.81
70389;BMP280;58659;49.050;8.530;2023-03-14T11:26:40;97711.63;;;9.65
70389;BMP280;58659;49.050;8.530;2023-03-14T11:28:41;97682.94;;;9.65
70389;BMP280;58659;49.050;8.530;2023-03-14T11:31:31;97656.13;;;9.68
70389;BMP280;58659;49.050;8.530;2023-03-14T11:38:58;97714.94;;;9.69
70389;BMP280;58659;49.050;8.530;2023-03-14T11:41:57;97756.59;;;9.72
70389;BMP280;58659;49.050;8.530;2023-03-14T11:44:33;97895.16;;;9.71
70389;BMP280;58659;49.050;8.530;2023-03-14T11:47:06;97973.47;;;9.57
70389;BMP280;58659;49.050;8.530;2023-03-14T11:49:53;98010.03;;;9.46
70389;BMP280;58659;49.050;8.530;2023-03-14T11:52:34;98040.69;;;9.28
70389;BMP280;58659;49.050;8.530;2023-03-14T11:55:21;98043.06;;;9.05
70389;BMP280;58659;49.050;8.530;2023-03-14T11:57:56;98094.41;;;8.90
70389;BMP280;58659;49.050;8.530;2023-03-14T12:00:24;98127.16;;;8.84
70389;BMP280;58659;49.050;8.530;2023-03-14T12:05:46;98176.66;;;8.73
70389;BMP280;58659;49.050;8.530;2023-03-14T12:08:25;98202.34;;;8.68
70389;BMP280;58659;49.050;8.530;2023-03-14T12:10:59;98215.72;;;8.66
70389;BMP280;58659;49.050;8.530;2023-03-14T12:13:32;98235.03;;;8.62
70389;BMP280;58659;49.050;8.530;2023-03-14T12:16:00;98240.25;;;8.58
70389;BMP280;58659;49.050;8.530;2023-03-14T12:18:28;98254.38;;;8.61
70389;BMP280;58659;49.050;8.530;2023-03-14T12:20:57;98252.16;;;8.63
70389;BMP280;58659;49.050;8.530;2023-03-14T12:23:24;98295.25;;;8.64
70389;BMP280;58659;49.050;8.530;2023-03-14T12:28:33;98296.00;;;8.61
70389;BMP280;58659;49.050;8.530;2023-03-14T12:41:47;98354.44;;;9.06
70389;BMP280;58659;49.050;8.530;2023-03-14T12:44:42;98373.41;;;9.20
70389;BMP280;58659;49.050;8.530;2023-03-14T12:49:50;98390.09;;;9.72
70389;BMP280;58659;49.050;8.530;2023-03-14T12:52:21;98391.78;;;10.35
70389;BMP280;58659;49.050;8.530;2023-03-14T12:55:08;98402.09;;;11.12
70389;BMP280;58659;49.050;8.530;2023-03-14T12:58:02;98426.91;;;11.41
70389;BMP280;58659;49.050;8.530;2023-03-14T13:00:33;98415.31;;;11.38
70389;BMP280;58659;49.050;8.530;2023-03-14T13:03:17;98429.94;;;11.32
70389;BMP280;58659;49.050;8.530;2023-03-14T13:06:00;98448.75;;;11.13
70389;BMP280;58659;49.050;8.530;2023-03-14T13:10:59;98483.34;;;11.31
70389;BMP280;58659;49.050;8.530;2023-03-14T13:13:26;98489.19;;;10.98
70389;BMP280;58659;49.050;8.530;2023-03-14T13:15:56;98493.16;;;11.65
70389;BMP280;58659;49.050;8.530;2023-03-14T13:18:36;98507.28;;;12.45
70389;BMP280;58659;49.050;8.530;2023-03-14T13:21:15;98506.75;;;12.57
70389;BMP280;58659;49.050;8.530;2023-03-14T13:23:54;98500.41;;;12.28
70389;BMP280;58659;49.050;8.530;2023-03-14T13:26:20;98532.22;;;11.41
70389;BMP280;58659;49.050;8.530;2023-03-14T13:28:46;98536.13;;;11.16
70389;BMP280;58659;49.050;8.530;2023-03-14T13:31:21;98531.91;;;10.63
70389;BMP280;58659;49.050;8.530;2023-03-14T13:33:56;98533.41;;;10.50
70389;BMP280;58659;49.050;8.530;2023-03-14T13:36:22;98540.94;;;10.30
70389;BMP280;58659;49.050;8.530;2023-03-14T13:38:56;98545.41;;;10.26
70389;BMP280;58659;49.050;8.530;2023-03-14T13:41:23;98550.66;;;10.09
70389;BMP280;58659;49.050;8.530;2023-03-14T13:43:49;98562.59;;;9.92
70389;BMP280;58659;49.050;8.530;2023-03-14T13:48:45;98569.66;;;9.70
70389;BMP280;58659;49.050;8.530;2023-03-14T13:51:13;98586.03;;;9.57
70389;BMP280;58659;49.050;8.530;2023-03-14T13:53:49;98581.91;;;9.41
70389;BMP280;58659;49.050;8.530;2023-03-14T13:56:19;98578.16;;;9.35
70389;BMP280;58659;49.050;8.530;2023-03-14T13:58:45;98591.97;;;9.39
70389;BMP280;58659;49.050;8.530;2023-03-14T14:01:20;98614.28;;;9.33
70389;BMP280;58659;49.050;8.530;2023-03-14T14:03:52;98626.16;;;9.27
70389;BMP280;58659;49.050;8.530;2023-03-14T14:06:37;98618.72;;;9.36
70389;BMP280;58659;49.050;8.530;2023-03-14T14:09:12;98648.19;;;9.47
70389;BMP280;58659;49.050;8.530;2023-03-14T14:11:42;98644.81;;;9.47
70389;BMP280;58659;49.050;8.530;2023-03-14T14:14:13;98658.22;;;9.42
70389;BMP280;58659;49.050;8.530;2023-03-14T14:16:43;98659.41;;;9.66
70389;BMP280;58659;49.050;8.530;2023-03-14T14:19:09;98670.56;;;9.56
70389;BMP280;58659;49.050;8.530;2023-03-14T14:21:35;98687.69;;;9.50
70389;BMP280;58659;49.050;8.530;2023-03-14T14:24:00;98673.50;;;9.40
70389;BMP280;58659;49.050;8.530;2023-03-14T14:26:26;98683.97;;;9.51
70389;BMP280;58659;49.050;8.530;2023-03-14T14:29:04;98694.41;;;9.58
70389;BMP280;58659;49.050;8.530;2023-03-14T14:31:29;98697.75;;;9.55
70389;BMP280;58659;49.050;8.530;2023-03-14T14:36:25;98707.38;;;9.47
70389;BMP280;58659;49.050;8.530;2023-03-14T14:38:53;98709.31;;;9.54
70389;BMP280;58659;49.050;8.530;2023-03-14T14:41:19;98715.00;;;9.91
70389;BMP280;58659;49.050;8.530;2023-03-14T14:43:45;98726.16;;;9.88
70389;BMP280;58659;49.050;8.530;2023-03-14T14:46:17;98717.63;;;10.09
70389;BMP280;58659;49.050;8.530;2023-03-14T14:48:43;98731.47;;;10.41
70389;BMP280;58659;49.050;8.530;2023-03-14T14:51:08;98731.09;;;10.60
70389;BMP280;58659;49.050;8.530;2023-03-14T14:53:37;98722.84;;;10.97
70389;BMP280;58659;49.050;8.530;2023-03-14T14:56:07;98720.94;;;11.12
70389;BMP280;58659;49.050;8.530;2023-03-14T14:58:36;98739.28;;;10.94
70389;BMP280;58659;49.050;8.530;2023-03-14T15:01:14;98735.19;;;10.43
70389;BMP280;58659;49.050;8.530;2023-03-14T15:03:43;98744.50;;;10.16
70389;BMP280;58659;49.050;8.530;2023-03-14T15:06:14;98746.69;;;9.96
70389;BMP280;58659;49.050;8.530;2023-03-14T15:08:40;98737.28;;;9.71
70389;BMP280;58659;49.050;8.530;2023-03-14T15:11:05;98742.13;;;9.72
70389;BMP280;58659;49.050;8.530;2023-03-14T15:13:31;98755.97;;;9.80
70389;BMP280;58659;49.050;8.530;2023-03-14T15:15:56;98755.09;;;9.58
70389;BMP280;58659;49.050;8.530;2023-03-14T15:18:24;98763.31;;;9.57